Time;durP1;ratioP1;P1;durP2;ratioP2;P2;SDS_P1;SDS_P2;PMS_P1;PMS_P2;Temp;Humidity;BMP_temperature;BMP_pressure;BME280_temperature;BME280_humidity;BME280_pressure;Samples;Min_cycle;Max_cycle;Signal;HPM_P1;HPM_P2
2023/07/30 00:00:59;;;;;;;3.92;3.63;;;17.40;99.90;;;17.90;100.00;97566.34;10372518;28;20325;-81
2023/07/30 00:06:03;;;;;;;6.30;2.88;;;17.40;99.90;;;18.06;100.00;97558.13;10373457;28;20250;-83
2023/07/30 00:11:06;;;;;;;3.58;2.22;;;17.50;99.90;;;17.75;100.00;97526.34;10377533;28;20253;-80
2023/07/30 00:16:12;;;;;;;2.38;2.17;;;17.20;99.90;;;17.64;100.00;97526.94;10370789;28;20257;-81
2023/07/30 00:21:15;;;;;;;3.25;2.17;;;17.20;99.90;;;17.63;100.00;97509.69;10374326;28;20226;-82
2023/07/30 00:26:18;;;;;;;2.35;2.15;;;17.10;99.90;;;17.68;100.00;97528.72;10377834;28;20672;-82
2023/07/30 00:31:23;;;;;;;3.60;1.85;;;17.10;99.90;;;17.29;100.00;97516.59;10380041;28;20715;-82
2023/07/30 00:36:27;;;;;;;2.70;2.20;;;16.70;99.90;;;16.90;100.00;97504.41;10381977;28;20227;-82
2023/07/30 00:41:30;;;;;;;2.72;2.35;;;16.50;99.90;;;16.86;100.00;97512.91;10377754;28;20248;-83
2023/07/30 00:46:35;;;;;;;2.20;2.00;;;16.50;99.90;;;17.02;100.00;97530.53;10379154;28;20305;-83
2023/07/30 00:51:39;;;;;;;3.47;1.88;;;16.50;99.90;;;16.76;100.00;97526.38;10382317;28;20285;-82
2023/07/30 00:56:50;;;;;;;3.83;2.10;;;16.30;99.90;;;16.97;100.00;97542.47;10366990;28;20238;-84
2023/07/30 01:01:57;;;;;;;2.55;2.00;;;16.40;99.90;;;16.70;100.00;97534.81;10377483;28;20826;-83
2023/07/30 01:07:00;;;;;;;2.70;1.90;;;16.20;99.90;;;16.59;100.00;97544.81;10373070;28;20242;-82
2023/07/30 01:12:06;;;;;;;2.30;2.10;;;16.10;99.90;;;16.55;100.00;97548.16;10373883;28;20222;-84
2023/07/30 01:17:12;;;;;;;3.10;2.20;;;16.20;99.90;;;16.72;100.00;97540.91;10378992;28;20227;-84
2023/07/30 01:22:16;;;;;;;2.67;2.00;;;16.30;99.90;;;17.10;100.00;97533.34;10375654;28;20302;-84
2023/07/30 01:27:26;;;;;;;2.58;2.08;;;16.50;99.90;;;16.97;100.00;97534.72;10377740;28;20265;-85
2023/07/30 01:32:30;;;;;;;2.60;1.88;;;16.30;99.90;;;16.73;100.00;97539.19;10367470;28;20286;-84
2023/07/30 01:37:36;;;;;;;2.35;2.15;;;16.20;99.90;;;16.58;100.00;97553.41;10379394;28;20285;-85
2023/07/30 01:42:40;;;;;;;3.28;2.10;;;16.00;99.90;;;16.48;100.00;97560.84;10359898;28;20235;-83
2023/07/30 01:47:43;;;;;;;2.83;2.40;;;16.00;99.90;;;16.46;100.00;97555.66;10378018;28;20277;-84
2023/07/30 01:52:48;;;;;;;3.15;2.28;;;16.00;99.90;;;16.63;100.00;97562.16;10378598;28;20245;-84
2023/07/30 01:57:51;;;;;;;2.65;2.30;;;16.10;99.90;;;16.51;100.00;97561.81;10377292;28;20219;-83
2023/07/30 02:02:54;;;;;;;3.25;2.10;;;16.00;99.90;;;16.47;100.00;97565.13;10376186;28;20226;-83
2023/07/30 02:07:59;;;;;;;2.55;2.35;;;16.00;99.90;;;16.46;100.00;97570.25;10370008;28;20223;-83
2023/07/30 02:13:02;;;;;;;2.83;2.40;;;16.00;99.90;;;16.44;100.00;97565.91;10374299;28;20252;-84
2023/07/30 02:18:06;;;;;;;2.75;2.55;;;16.00;99.90;;;16.52;100.00;97563.56;10372815;28;20310;-84
2023/07/30 02:23:10;;;;;;;3.45;3.03;;;16.10;99.90;;;16.59;100.00;97568.03;10381441;28;20226;-83
2023/07/30 02:28:13;;;;;;;4.55;2.83;;;16.20;99.90;;;16.71;100.00;97564.06;10384144;28;20218;-84
2023/07/30 02:33:17;;;;;;;2.70;2.45;;;16.30;99.90;;;16.78;100.00;97556.59;10380577;28;20895;-83
2023/07/30 02:38:22;;;;;;;3.45;2.58;;;16.40;99.90;;;16.75;100.00;97540.97;10380317;28;20226;-83
2023/07/30 02:43:25;;;;;;;3.00;2.70;;;16.30;99.90;;;16.80;100.00;97552.34;10373883;28;20242;-83
2023/07/30 02:48:28;;;;;;;3.47;2.58;;;16.30;99.90;;;16.80;100.00;97554.94;10379366;28;20222;-83
2023/07/30 02:53:32;;;;;;;3.38;3.00;;;16.30;99.90;;;16.65;100.00;97567.34;10371516;28;20230;-82
2023/07/30 02:58:36;;;;;;;5.28;3.03;;;16.10;99.90;;;16.70;100.00;97567.50;10378308;28;20289;-82
2023/07/30 03:03:39;;;;;;;3.08;2.78;;;16.20;99.90;;;16.76;100.00;97565.97;10380433;28;20237;-82
2023/07/30 03:08:43;;;;;;;2.97;2.70;;;16.30;99.90;;;16.55;100.00;97573.09;10378158;28;20245;-80
2023/07/30 03:13:46;;;;;;;2.63;2.42;;;16.10;99.90;;;16.58;100.00;97575.75;10373304;28;20246;-80
2023/07/30 03:18:50;;;;;;;3.53;2.90;;;16.10;99.90;;;16.73;100.00;97572.75;10371509;28;20291;-81
2023/07/30 03:23:54;;;;;;;3.45;3.15;;;16.20;99.90;;;16.69;100.00;97570.91;10389779;28;20301;-81
2023/07/30 03:28:57;;;;;;;3.35;2.63;;;16.20;99.90;;;16.65;100.00;97567.34;10387383;28;22343;-82
2023/07/30 03:34:01;;;;;;;4.00;3.40;;;16.20;99.90;;;16.61;100.00;97568.09;10382260;28;20230;-82
2023/07/30 03:39:05;;;;;;;3.45;3.22;;;16.20;99.90;;;16.72;100.00;97571.00;10389846;28;20309;-82
2023/07/30 03:44:08;;;;;;;3.10;2.90;;;16.30;99.90;;;16.80;100.00;97574.72;10392463;28;20253;-83
2023/07/30 03:49:11;;;;;;;4.00;3.30;;;16.30;99.90;;;16.79;100.00;97578.97;10399024;28;20321;-85
2023/07/30 03:54:16;;;;;;;4.05;3.33;;;16.30;99.90;;;16.76;100.00;97583.16;10394147;28;20238;-82
2023/07/30 03:59:19;;;;;;;2.90;2.70;;;16.30;99.90;;;16.71;100.00;97579.56;10389617;28;20286;-82
2023/07/30 04:04:22;;;;;;;3.50;3.15;;;16.20;99.90;;;16.76;100.00;97594.38;10383695;28;20238;-82
2023/07/30 04:09:27;;;;;;;4.22;3.67;;;16.30;99.90;;;16.92;100.00;97598.28;10388176;28;20278;-82
2023/07/30 04:14:30;;;;;;;3.78;3.40;;;16.30;99.90;;;16.81;100.00;97597.09;10382694;28;20305;-82
2023/07/30 04:19:33;;;;;;;5.05;3.90;;;16.20;99.90;;;16.83;100.00;97600.59;10390053;28;20297;-83
2023/07/30 04:24:38;;;;;;;4.82;4.43;;;16.30;99.90;;;16.80;100.00;97606.56;10393549;28;20249;-82
2023/07/30 04:29:41;;;;;;;4.30;3.70;;;16.30;99.90;;;16.78;100.00;97609.91;10390707;28;20221;-83
2023/07/30 04:34:44;;;;;;;4.72;4.28;;;16.30;99.90;;;16.93;100.00;97618.09;10385637;28;20227;-83
2023/07/30 04:39:49;;;;;;;5.35;3.90;;;16.40;99.90;;;17.21;100.00;97622.31;10391005;28;20269;-83
2023/07/30 04:44:52;;;;;;;4.93;4.53;;;16.60;99.90;;;17.31;100.00;97626.00;10387348;28;20294;-81
2023/07/30 04:49:55;;;;;;;5.07;4.57;;;16.70;99.90;;;17.42;100.00;97639.22;10401885;28;20235;-81
2023/07/30 04:55:00;;;;;;;4.82;4.43;;;16.80;99.90;;;17.42;100.00;97627.16;10407141;28;20246;-82
2023/07/30 05:00:04;;;;;;;4.30;3.83;;;16.80;99.90;;;17.54;100.00;97617.16;10400180;28;20223;-81
2023/07/30 05:05:07;;;;;;;4.80;4.30;;;17.00;99.90;;;17.64;100.00;97630.31;10384872;28;20223;-81
2023/07/30 05:10:12;;;;;;;4.28;3.88;;;17.10;99.90;;;17.71;100.00;97629.63;10379921;28;20257;-83
2023/07/30 05:15:15;;;;;;;3.63;3.33;;;17.20;99.90;;;17.83;100.00;97630.00;10380049;28;20699;-85
2023/07/30 05:20:19;;;;;;;4.63;4.20;;;17.40;99.90;;;17.90;100.00;97637.03;10376857;28;20900;-82
2023/07/30 05:25:23;;;;;;;4.35;3.97;;;17.40;99.90;;;17.91;100.00;97635.31;10373465;28;20888;-82
2023/07/30 05:30:26;;;;;;;4.55;4.15;;;17.30;99.90;;;17.77;100.00;97629.81;10365245;28;20912;-82
2023/07/30 05:35:30;;;;;;;5.28;4.15;;;17.20;99.90;;;17.72;100.00;97631.41;10371712;28;20230;-83
2023/07/30 05:40:37;;;;;;;4.35;4.05;;;17.20;99.90;;;17.79;100.00;97630.72;10368156;28;20231;-80
2023/07/30 05:45:42;;;;;;;5.72;4.85;;;17.30;99.90;;;17.89;100.00;97627.56;10364124;28;20234;-80
2023/07/30 05:50:45;;;;;;;5.55;5.05;;;17.40;99.90;;;17.95;100.00;97627.69;10366751;28;20219;-80
2023/07/30 05:55:50;;;;;;;5.80;5.40;;;17.40;99.90;;;18.04;100.00;97633.94;10368422;28;20226;-82
2023/07/30 06:00:53;;;;;;;6.03;5.53;;;17.50;99.90;;;18.08;100.00;97625.38;10371628;28;20337;-79
2023/07/30 06:05:56;;;;;;;6.22;5.63;;;17.50;99.90;;;18.07;100.00;97632.28;10365731;28;20234;-80
2023/07/30 06:11:04;;;;;;;5.55;5.15;;;17.50;99.90;;;18.14;100.00;97635.88;10373697;28;20232;-81
2023/07/30 06:16:07;;;;;;;5.85;5.35;;;17.60;99.90;;;18.21;100.00;97640.38;10367432;28;20246;-81
2023/07/30 06:21:10;;;;;;;5.88;5.38;;;17.70;99.90;;;18.27;100.00;97645.69;10365206;28;20234;-81
2023/07/30 06:26:14;;;;;;;6.38;5.88;;;17.80;99.90;;;18.40;100.00;97654.63;10372287;28;20240;-80
2023/07/30 06:31:18;;;;;;;6.35;5.70;;;17.80;99.90;;;18.46;100.00;97653.03;10370415;28;20229;-81
2023/07/30 06:36:21;;;;;;;7.10;6.50;;;17.90;99.90;;;18.68;100.00;97653.50;10367676;28;20234;-79
2023/07/30 06:41:26;;;;;;;6.65;6.15;;;18.10;99.90;;;18.70;100.00;97657.00;10366573;28;20280;-80
2023/07/30 06:46:29;;;;;;;5.90;5.40;;;18.10;99.90;;;18.79;100.00;97661.53;10364790;28;20285;-81
2023/07/30 06:51:32;;;;;;;6.70;6.18;;;18.20;99.90;;;19.28;100.00;97663.41;10360721;28;20229;-81
2023/07/30 06:56:37;;;;;;;5.88;5.32;;;18.70;99.90;;;19.86;100.00;97673.13;10361734;28;20226;-81
2023/07/30 07:01:40;;;;;;;4.90;4.60;;;19.10;99.90;;;20.03;100.00;97676.94;10360596;28;20234;-79
2023/07/30 07:06:44;;;;;;;4.88;4.40;;;19.20;99.90;;;20.17;100.00;97670.25;10370431;28;20626;-78
2023/07/30 07:11:48;;;;;;;5.07;4.38;;;19.40;99.90;;;20.05;100.00;97683.00;10369856;28;20265;-79
2023/07/30 07:16:55;;;;;;;4.72;4.13;;;19.40;99.90;;;20.10;100.00;97696.94;10365840;28;20226;-80
2023/07/30 07:21:58;;;;;;;4.60;4.30;;;19.50;99.90;;;19.99;100.00;97696.72;10372822;28;20237;-78
2023/07/30 07:27:03;;;;;;;4.18;3.88;;;19.40;99.90;;;19.74;100.00;97697.16;10373411;28;21138;-81
2023/07/30 07:32:07;;;;;;;4.55;4.15;;;19.20;99.90;;;19.76;100.00;97692.88;10368404;28;20313;-80
2023/07/30 07:37:10;;;;;;;4.45;4.15;;;19.20;99.90;;;20.06;100.00;97695.13;10358370;28;20252;-77
2023/07/30 07:42:15;;;;;;;4.38;4.07;;;19.50;99.90;;;20.41;100.00;97700.03;10354889;28;20226;-79
2023/07/30 07:47:19;;;;;;;4.80;4.40;;;19.60;99.90;;;20.48;100.00;97701.84;10365750;28;20234;-80
2023/07/30 07:52:22;;;;;;;4.40;4.10;;;19.70;99.90;;;20.42;100.00;97704.34;10359998;28;20242;-81
2023/07/30 07:57:27;;;;;;;4.40;4.05;;;19.60;99.90;;;20.27;100.00;97712.78;10367603;28;20230;-81
2023/07/30 08:02:30;;;;;;;4.85;4.45;;;19.50;99.90;;;20.05;100.00;97718.44;10360004;28;20784;-78
2023/07/30 08:07:33;;;;;;;4.50;4.10;;;19.40;99.90;;;19.98;100.00;97707.09;10356124;28;20222;-80
2023/07/30 08:12:38;;;;;;;4.55;4.15;;;19.40;99.90;;;20.10;100.00;97704.72;10368961;28;20245;-78
2023/07/30 08:17:41;;;;;;;3.80;3.50;;;19.50;99.90;;;20.44;100.00;97720.84;10360974;28;20227;-79
2023/07/30 08:22:44;;;;;;;4.07;3.70;;;19.80;99.90;;;20.22;100.00;97738.66;10355952;28;20223;-77
2023/07/30 08:27:49;;;;;;;3.63;3.00;;;19.60;99.90;;;19.74;100.00;97731.75;10356165;28;20233;-78
2023/07/30 08:32:52;;;;;;;2.72;2.53;;;19.10;99.90;;;19.27;100.00;97728.19;10362278;28;20222;-81
2023/07/30 08:37:56;;;;;;;3.03;2.70;;;18.70;99.90;;;19.17;100.00;97732.28;10360545;28;20691;-78
2023/07/30 08:43:04;;;;;;;2.85;2.65;;;18.60;99.90;;;19.25;100.00;97729.88;10360846;28;20234;-78
2023/07/30 08:48:08;;;;;;;2.80;2.60;;;18.70;99.90;;;19.31;100.00;97740.34;10371420;28;20605;-80
2023/07/30 08:53:11;;;;;;;3.33;2.95;;;18.80;99.90;;;19.35;100.00;97753.41;10369552;28;20320;-80
2023/07/30 08:58:19;;;;;;;2.60;2.40;;;18.80;99.90;;;19.54;100.00;97748.59;10371458;28;20253;-81
2023/07/30 09:03:23;;;;;;;3.65;2.38;;;19.00;99.90;;;19.65;100.00;97736.75;10371838;28;20230;-79
2023/07/30 09:08:26;;;;;;;3.00;2.78;;;19.10;99.90;;;19.94;100.00;97751.97;10371628;28;20222;-81
2023/07/30 09:13:32;;;;;;;2.95;2.67;;;19.40;99.90;;;20.21;100.00;97734.31;10395733;28;20226;-81
2023/07/30 09:18:41;;;;;;;2.65;2.45;;;19.60;99.90;;;20.38;100.00;97736.34;10392616;28;20343;-79
2023/07/30 09:23:46;;;;;;;2.80;2.60;;;19.80;99.90;;;20.39;100.00;97738.94;10380094;28;20234;-78
2023/07/30 09:28:51;;;;;;;2.40;2.20;;;19.90;99.90;;;20.81;100.00;97750.88;10369441;28;20229;-80
2023/07/30 09:33:56;;;;;;;2.30;2.20;;;20.20;99.90;;;20.97;100.00;97746.75;10356333;28;20723;-79
2023/07/30 09:39:00;;;;;;;2.53;2.33;;;20.50;99.90;;;21.19;100.00;97741.88;10358055;28;20232;-77
2023/07/30 09:44:05;;;;;;;2.63;2.22;;;20.60;99.90;;;21.20;100.00;97749.69;10362976;28;20245;-78
2023/07/30 09:49:09;;;;;;;2.80;2.60;;;20.70;99.90;;;21.54;100.00;97737.13;10362626;28;20261;-77
2023/07/30 09:54:13;;;;;;;2.88;2.63;;;21.00;99.90;;;21.11;100.00;97753.03;10368527;28;20252;-78
2023/07/30 09:59:18;;;;;;;2.88;2.67;;;20.60;99.90;;;20.95;100.00;97745.91;10338612;28;20230;-78
2023/07/30 10:04:22;;;;;;;2.97;2.67;;;20.40;99.90;;;20.92;100.00;97745.84;10347474;28;20236;-76
2023/07/30 10:09:31;;;;;;;2.97;2.72;;;20.20;99.90;;;20.68;100.00;97760.19;10351745;28;20226;-76
2023/07/30 10:14:36;;;;;;;2.80;2.60;;;20.10;99.90;;;20.39;100.00;97761.44;10344314;28;20222;-77
2023/07/30 10:19:40;;;;;;;3.22;2.70;;;19.90;99.90;;;20.32;100.00;97770.84;10353598;28;20232;-77
2023/07/30 10:24:58;;;;;;;3.28;2.97;;;19.70;99.90;;;20.25;100.00;97756.00;10361352;28;20227;-77
2023/07/30 10:30:13;;;;;;;3.42;3.13;;;19.70;99.90;;;20.07;100.00;97763.47;10349819;28;20217;-76
2023/07/30 10:35:42;;;;;;;3.70;3.30;;;19.60;99.90;;;20.21;100.00;97778.44;10352717;28;20229;-76
2023/07/30 10:41:01;;;;;;;3.40;3.13;;;19.60;99.90;;;20.27;100.00;97784.59;10351888;28;20605;-76
2023/07/30 10:46:06;;;;;;;4.95;3.40;;;19.70;99.90;;;20.34;100.00;97787.31;10353240;28;20234;-77
2023/07/30 10:51:13;;;;;;;3.33;3.03;;;19.80;99.90;;;20.42;100.00;97784.84;10339790;28;20226;-78
2023/07/30 10:56:19;;;;;;;3.72;3.00;;;19.90;99.90;;;20.66;100.00;97787.00;10356053;28;20631;-78
2023/07/30 11:01:26;;;;;;;3.20;2.88;;;20.10;99.90;;;20.98;99.53;97768.47;10352244;28;20248;-78
2023/07/30 11:06:29;;;;;;;3.40;3.05;;;20.60;99.90;;;21.30;95.40;97763.69;10346943;28;20292;-77
2023/07/30 11:11:33;;;;;;;3.35;2.90;;;21.00;99.90;;;21.64;95.45;97767.63;10359716;28;20230;-78
2023/07/30 11:16:39;;;;;;;3.75;3.45;;;21.30;99.90;;;21.95;90.01;97760.16;10363703;28;20240;-77
2023/07/30 11:21:46;;;;;;;3.67;3.40;;;21.60;99.90;;;22.30;90.78;97778.75;10369761;28;20665;-79
2023/07/30 11:26:58;;;;;;;4.05;3.65;;;22.00;99.90;;;22.35;91.21;97784.00;10366037;28;20309;-78
2023/07/30 11:32:04;;;;;;;3.35;3.05;;;21.90;99.90;;;22.29;79.75;97779.63;10365050;28;20301;-78
2023/07/30 11:37:08;;;;;;;3.30;3.10;;;21.90;99.90;;;22.44;86.88;97771.94;10367102;28;20717;-78
2023/07/30 11:42:12;;;;;;;3.70;2.95;;;22.00;99.90;;;22.05;80.34;97780.19;10371461;28;20404;-78
2023/07/30 11:47:22;;;;;;;3.40;3.05;;;21.40;99.90;;;21.99;88.05;97783.63;10376278;28;20226;-78
2023/07/30 11:52:26;;;;;;;4.07;3.15;;;21.20;99.90;;;21.88;80.63;97786.97;10374820;28;20565;-79
2023/07/30 11:57:35;;;;;;;3.50;3.20;;;21.20;99.90;;;22.15;78.90;97786.38;10370684;28;20234;-79
2023/07/30 12:02:40;;;;;;;3.22;2.63;;;21.50;99.90;;;22.25;76.40;97793.47;10371662;28;20281;-78
2023/07/30 12:07:44;;;;;;;3.10;2.85;;;21.80;99.90;;;22.22;79.56;97806.44;10375885;28;20223;-81
2023/07/30 12:12:47;;;;;;;3.33;3.03;;;21.50;99.90;;;22.19;79.07;97814.22;10371414;28;20238;-80
2023/07/30 12:17:51;;;;;;;3.10;2.90;;;21.50;99.90;;;21.96;75.51;97825.22;10381583;28;20699;-79
2023/07/30 12:22:55;;;;;;;3.30;3.00;;;21.40;99.90;;;22.12;78.45;97808.06;10371982;28;20240;-81
2023/07/30 12:27:58;;;;;;;2.80;2.60;;;21.50;99.90;;;22.01;70.93;97817.50;10371228;28;20257;-80
2023/07/30 12:33:02;;;;;;;3.13;2.92;;;21.40;99.90;;;21.97;77.37;97819.16;10368523;28;20301;-80
2023/07/30 12:38:06;;;;;;;3.28;2.67;;;21.30;99.90;;;22.10;75.89;97827.13;10376186;28;20711;-80
2023/07/30 12:43:09;;;;;;;3.45;3.15;;;21.40;99.90;;;21.96;74.17;97820.03;10374161;28;20240;-80
2023/07/30 12:48:14;;;;;;;3.03;2.72;;;21.40;99.90;;;22.13;73.06;97817.63;10378689;28;20230;-81
2023/07/30 12:53:17;;;;;;;3.05;2.78;;;21.50;99.90;;;21.95;72.67;97812.22;10376727;28;20314;-81
2023/07/30 12:58:20;;;;;;;3.33;2.75;;;21.40;99.90;;;22.30;75.83;97810.00;10369590;28;20258;-81
2023/07/30 13:03:25;;;;;;;3.25;2.92;;;21.70;99.90;;;22.47;73.45;97803.22;10380095;28;20317;-81
2023/07/30 13:08:28;;;;;;;2.90;2.70;;;21.90;99.90;;;22.61;70.59;97815.50;10381607;28;20637;-81
2023/07/30 13:13:31;;;;;;;2.95;2.75;;;22.10;99.90;;;22.64;69.55;97815.53;10375609;28;20223;-81
2023/07/30 13:18:36;;;;;;;2.97;2.55;;;22.10;99.90;;;22.87;67.67;97818.31;10396835;28;20298;-80
2023/07/30 13:23:39;;;;;;;2.83;2.63;;;22.40;99.90;;;22.64;66.58;97823.34;10385537;28;20245;-80
2023/07/30 13:28:42;;;;;;;3.00;2.70;;;22.00;99.90;;;22.58;66.51;97831.97;10375008;28;20309;-80
2023/07/30 13:33:48;;;;;;;2.78;2.50;;;21.90;99.90;;;22.61;65.65;97825.94;10370213;28;20218;-80
2023/07/30 13:38:51;;;;;;;2.97;2.70;;;22.00;99.90;;;22.63;65.76;97824.19;10370299;28;20218;-81
2023/07/30 13:43:54;;;;;;;2.67;2.47;;;22.10;99.90;;;22.97;64.61;97827.09;10378084;28;20294;-80
2023/07/30 13:48:58;;;;;;;2.88;2.67;;;22.40;99.90;;;23.05;62.71;97828.03;10365277;28;20788;-81
2023/07/30 13:54:02;;;;;;;2.75;2.55;;;22.50;99.90;;;22.92;61.30;97822.72;10371577;28;20237;-81
2023/07/30 13:59:06;;;;;;;2.80;2.60;;;22.40;99.90;;;22.76;61.05;97815.63;10367235;28;20612;-80
2023/07/30 14:04:10;;;;;;;5.00;2.55;;;22.20;99.90;;;23.07;61.53;97831.53;10366947;28;20234;-80
2023/07/30 14:09:13;;;;;;;2.45;2.20;;;22.50;99.90;;;23.27;57.65;97834.28;10374391;28;20685;-81
2023/07/30 14:14:17;;;;;;;2.63;2.40;;;22.70;99.90;;;22.90;59.49;97853.09;10376078;28;20230;-80
2023/07/30 14:19:21;;;;;;;2.65;2.45;;;22.40;99.90;;;23.11;60.34;97864.59;10363663;28;20233;-80
2023/07/30 14:24:24;;;;;;;2.60;2.40;;;22.50;99.90;;;22.94;58.54;97852.25;10375860;28;20230;-80
2023/07/30 14:29:27;;;;;;;2.90;2.38;;;22.40;99.90;;;23.26;58.98;97849.03;10374332;28;20252;-80
2023/07/30 14:34:32;;;;;;;2.88;2.50;;;22.70;99.90;;;23.35;56.87;97864.78;10367434;28;20236;-80
2023/07/30 14:39:35;;;;;;;4.40;2.25;;;22.90;99.90;;;23.19;56.94;97852.47;10365451;28;20234;-81
2023/07/30 14:44:39;;;;;;;4.03;2.55;;;22.70;99.90;;;23.40;57.00;97870.00;10368236;28;20760;-81
2023/07/30 14:49:43;;;;;;;2.25;2.05;;;22.70;99.90;;;23.19;56.92;97864.66;10369248;28;20223;-81
2023/07/30 14:54:47;;;;;;;3.78;2.42;;;22.70;99.90;;;23.03;57.75;97858.44;10366317;28;20856;-80
2023/07/30 14:59:50;;;;;;;3.10;2.40;;;22.40;99.90;;;22.91;57.75;97851.34;10371831;28;20226;-82
2023/07/30 15:04:55;;;;;;;4.03;2.53;;;22.30;99.90;;;23.17;58.13;97864.63;10367434;28;20301;-82
2023/07/30 15:09:58;;;;;;;3.15;2.15;;;22.50;99.90;;;23.13;55.45;97868.94;10366989;28;20295;-81
2023/07/30 15:15:01;;;;;;;2.80;2.10;;;22.50;99.90;;;23.05;55.16;97864.53;10366708;28;20232;-82
2023/07/30 15:20:07;;;;;;;2.60;2.25;;;22.40;99.90;;;22.84;57.98;97863.47;10373767;28;20258;-82
2023/07/30 15:25:10;;;;;;;3.55;2.20;;;22.20;99.90;;;23.09;54.99;97874.13;10376939;28;20676;-79
2023/07/30 15:30:14;;;;;;;2.30;2.10;;;22.40;99.90;;;22.97;54.98;97874.91;10372868;28;20233;-82
2023/07/30 15:35:18;;;;;;;3.17;2.00;;;22.40;99.90;;;22.91;53.35;97878.28;10369991;28;20230;-80
2023/07/30 15:40:21;;;;;;;2.67;2.15;;;22.40;99.90;;;22.85;54.72;97885.19;10352745;28;20336;-81
2023/07/30 15:45:25;;;;;;;2.40;2.20;;;22.20;99.90;;;22.85;53.31;97869.56;10364866;28;20237;-80
2023/07/30 15:50:30;;;;;;;3.45;2.10;;;22.30;99.90;;;23.03;53.36;97874.06;10366636;28;20833;-81
2023/07/30 15:55:34;;;;;;;2.40;2.03;;;22.40;99.90;;;23.09;51.12;97874.13;10364663;28;20325;-80
2023/07/30 16:00:37;;;;;;;3.03;2.40;;;22.50;98.40;;;23.15;51.77;97882.88;10365304;28;20292;-80
2023/07/30 16:05:48;;;;;;;3.45;1.90;;;22.50;98.60;;;23.11;49.68;97872.41;10362728;28;20226;-81
2023/07/30 16:10:51;;;;;;;2.58;2.00;;;22.50;97.00;;;23.09;51.06;97887.16;10363397;28;20280;-82
2023/07/30 16:15:55;;;;;;;4.10;1.90;;;22.40;97.90;;;22.94;51.54;97877.44;10364208;28;20321;-82
2023/07/30 16:21:03;;;;;;;2.65;1.90;;;22.30;98.50;;;22.89;51.77;97881.75;10363946;28;20318;-82
2023/07/30 16:26:06;;;;;;;3.22;1.60;;;22.20;98.50;;;23.02;50.65;97882.78;10365595;28;20234;-80
2023/07/30 16:31:10;;;;;;;3.78;2.08;;;22.30;97.60;;;23.06;50.74;97876.72;10368607;28;20277;-80
2023/07/30 16:36:14;;;;;;;2.75;1.80;;;22.40;97.70;;;22.94;50.30;97880.94;10369213;28;20230;-82
2023/07/30 16:41:18;;;;;;;3.35;1.98;;;22.20;97.00;;;22.82;51.73;97890.38;10380880;28;20229;-79
2023/07/30 16:46:21;;;;;;;3.00;2.00;;;22.00;98.40;;;22.87;49.80;97907.81;10373245;28;20336;-80
2023/07/30 16:51:25;;;;;;;3.38;2.13;;;22.00;96.90;;;22.56;49.59;97913.59;10376293;28;20881;-81
2023/07/30 16:56:29;;;;;;;3.13;1.98;;;21.80;96.40;;;22.64;49.61;97927.59;10379782;28;20355;-79
2023/07/30 17:01:33;;;;;;;3.08;2.00;;;21.80;96.60;;;22.09;50.28;97914.78;10371685;28;20607;-80
2023/07/30 17:06:37;;;;;;;3.95;2.17;;;21.40;96.80;;;21.96;51.28;97928.47;10380722;28;20234;-78
2023/07/30 17:11:41;;;;;;;2.92;2.00;;;21.20;97.30;;;21.82;50.64;97928.28;10363615;28;20218;-79
2023/07/30 17:16:45;;;;;;;3.40;1.90;;;21.00;97.10;;;21.57;50.60;97940.94;10365121;28;20672;-80
2023/07/30 17:21:49;;;;;;;2.30;1.88;;;20.70;97.00;;;21.38;51.41;97946.75;10367499;28;20230;-78
2023/07/30 17:26:53;;;;;;;4.60;2.03;;;20.60;97.40;;;21.15;50.82;97942.00;10375915;28;20326;-79
2023/07/30 17:31:56;;;;;;;2.38;1.90;;;20.30;96.70;;;21.06;51.53;97941.88;10365584;28;20238;-79
2023/07/30 17:37:01;;;;;;;2.55;1.60;;;20.20;97.30;;;20.91;53.18;97945.03;10372477;28;20235;-80
2023/07/30 17:42:05;;;;;;;2.78;1.80;;;20.20;98.40;;;20.81;53.29;97953.53;10365223;28;20223;-78
2023/07/30 17:47:08;;;;;;;2.00;1.63;;;20.10;98.50;;;20.82;54.42;97959.59;10364390;28;20237;-79
2023/07/30 17:52:12;;;;;;;3.45;1.92;;;20.10;99.10;;;20.75;55.86;97953.44;10364551;28;20285;-78
2023/07/30 17:57:16;;;;;;;3.03;1.85;;;20.00;99.90;;;20.77;54.02;97963.84;10367484;28;20227;-78
2023/07/30 18:02:19;;;;;;;4.13;2.17;;;19.90;98.90;;;20.67;55.20;97966.28;10363953;28;20238;-79
2023/07/30 18:07:24;;;;;;;3.67;1.90;;;19.90;99.60;;;20.62;55.64;97969.63;10366602;28;20222;-79
2023/07/30 18:12:27;;;;;;;4.18;2.20;;;19.80;99.90;;;20.54;54.79;97968.59;10365566;28;20684;-79
2023/07/30 18:17:30;;;;;;;2.95;2.00;;;19.80;99.90;;;20.35;54.37;97963.03;10366172;28;20280;-79
2023/07/30 18:22:35;;;;;;;2.97;1.83;;;19.60;99.20;;;20.23;55.54;97966.25;10362216;28;20239;-81
2023/07/30 18:27:42;;;;;;;4.80;2.20;;;19.50;99.90;;;20.18;54.63;97977.38;10374610;28;20230;-80
2023/07/30 18:32:45;;;;;;;2.72;1.77;;;19.40;99.50;;;19.87;56.20;97970.66;10365306;28;20247;-80
2023/07/30 18:37:50;;;;;;;2.72;1.85;;;19.10;99.90;;;19.74;54.97;97975.56;10369354;28;20237;-80
2023/07/30 18:42:53;;;;;;;2.78;2.00;;;19.00;99.40;;;19.72;55.11;97982.44;10369758;28;20218;-82
2023/07/30 18:47:56;;;;;;;4.95;1.70;;;19.00;99.90;;;19.54;56.18;97989.72;10366403;28;20333;-81
2023/07/30 18:53:02;;;;;;;3.85;2.05;;;18.80;99.90;;;19.32;56.66;97986.63;10356147;28;20261;-81
2023/07/30 18:58:05;;;;;;;2.42;1.67;;;18.60;99.90;;;19.23;58.01;97994.19;10357074;28;21146;-81
2023/07/30 19:03:10;;;;;;;2.63;1.80;;;18.50;99.90;;;19.09;57.99;97998.16;10363352;28;20622;-80
2023/07/30 19:08:15;;;;;;;2.67;1.92;;;18.40;99.90;;;19.00;59.55;97995.28;10363618;28;20222;-81
2023/07/30 19:13:18;;;;;;;3.53;2.00;;;18.30;99.90;;;18.95;60.65;97999.50;10362704;28;20318;-81
2023/07/30 19:18:22;;;;;;;2.80;1.92;;;18.20;99.90;;;18.89;64.00;98008.00;10357125;28;20222;-81
2023/07/30 19:23:26;;;;;;;2.75;1.92;;;18.20;99.90;;;18.77;63.56;98008.53;10354678;28;20303;-80
2023/07/30 19:28:29;;;;;;;3.58;2.13;;;18.00;99.90;;;18.63;64.51;98027.97;10364626;28;20277;-81
2023/07/30 19:33:33;;;;;;;2.78;1.77;;;17.90;99.90;;;18.53;67.80;98021.63;10357636;28;20233;-81
2023/07/30 19:38:38;;;;;;;3.17;2.00;;;17.80;99.90;;;18.43;69.12;98025.69;10355080;28;20711;-81
2023/07/30 19:43:41;;;;;;;3.55;2.10;;;17.70;99.90;;;18.33;69.46;98021.06;10350305;28;20318;-80
2023/07/30 19:48:45;;;;;;;5.35;2.35;;;17.60;99.90;;;18.23;70.72;98024.25;10349494;28;20795;-81
2023/07/30 19:53:49;;;;;;;3.25;1.90;;;17.50;99.90;;;18.11;70.75;98022.13;10346848;28;20233;-81
2023/07/30 19:58:53;;;;;;;3.72;2.05;;;17.40;99.90;;;18.07;73.22;98019.44;10353970;28;20227;-81
2023/07/30 20:03:57;;;;;;;2.80;2.38;;;17.30;99.90;;;18.01;74.69;98021.00;10360330;28;20223;-81
2023/07/30 20:09:02;;;;;;;7.30;2.60;;;17.20;99.90;;;17.91;76.45;98016.38;10371116;28;20314;-81
2023/07/30 20:14:06;;;;;;;3.60;2.40;;;17.20;99.90;;;17.81;77.80;98010.88;10354614;28;20231;-80
2023/07/30 20:19:09;;;;;;;4.43;2.38;;;17.00;99.90;;;17.79;78.56;98016.00;10356019;28;20326;-80
2023/07/30 20:24:14;;;;;;;4.25;2.22;;;17.00;99.90;;;17.70;79.28;98020.84;10361041;28;20234;-79
2023/07/30 20:29:18;;;;;;;4.35;2.60;;;16.90;99.90;;;17.70;79.90;98018.25;10371674;28;20233;-80
2023/07/30 20:34:21;;;;;;;3.88;2.38;;;16.90;99.90;;;17.53;82.26;98020.31;10364161;28;20226;-79
2023/07/30 20:39:26;;;;;;;4.40;2.60;;;16.70;99.90;;;17.33;84.36;98017.94;10370486;28;20848;-79
2023/07/30 20:44:29;;;;;;;4.90;2.70;;;16.50;99.90;;;17.32;83.99;98029.13;10366866;28;20236;-80
2023/07/30 20:49:33;;;;;;;6.05;2.78;;;16.50;99.90;;;17.31;85.39;98029.94;10364897;28;20257;-81
2023/07/30 20:54:37;;;;;;;4.43;2.60;;;16.40;99.90;;;17.19;85.19;98033.81;10367648;28;20257;-80
2023/07/30 20:59:41;;;;;;;3.83;2.63;;;16.30;99.90;;;17.06;83.79;98023.06;10356496;28;20231;-80